sensor_id;sensor_type;location;lat;lon;timestamp;P1;durP1;ratioP1;P2;durP2;ratioP2
16177;SDS011;8195;51.220;9.746;2023-04-20T00:09:50;9.67;;;8.67;;
16177;SDS011;8195;51.220;9.746;2023-04-20T00:20:11;11.63;;;10.57;;
16177;SDS011;8195;51.220;9.746;2023-04-20T00:30:31;11.23;;;10.13;;
16177;SDS011;8195;51.220;9.746;2023-04-20T00:40:58;10.97;;;9.97;;
16177;SDS011;8195;51.220;9.746;2023-04-20T00:51:22;11.50;;;10.33;;
16177;SDS011;8195;51.220;9.746;2023-04-20T01:01:43;11.57;;;10.40;;
16177;SDS011;8195;51.220;9.746;2023-04-20T01:12:05;11.37;;;10.20;;
16177;SDS011;8195;51.220;9.746;2023-04-20T01:22:26;12.10;;;10.20;;
16177;SDS011;8195;51.220;9.746;2023-04-20T01:32:47;9.83;;;8.93;;
16177;SDS011;8195;51.220;9.746;2023-04-20T01:43:08;8.47;;;7.77;;
16177;SDS011;8195;51.220;9.746;2023-04-20T01:53:29;9.07;;;8.17;;
16177;SDS011;8195;51.220;9.746;2023-04-20T02:03:50;10.43;;;9.50;;
16177;SDS011;8195;51.220;9.746;2023-04-20T02:14:11;9.03;;;8.23;;
16177;SDS011;8195;51.220;9.746;2023-04-20T02:24:32;8.67;;;7.83;;
16177;SDS011;8195;51.220;9.746;2023-04-20T02:34:53;8.50;;;7.80;;
16177;SDS011;8195;51.220;9.746;2023-04-20T02:45:13;7.80;;;7.13;;
16177;SDS011;8195;51.220;9.746;2023-04-20T02:55:34;7.27;;;6.67;;
16177;SDS011;8195;51.220;9.746;2023-04-20T03:05:55;6.37;;;5.73;;
16177;SDS011;8195;51.220;9.746;2023-04-20T03:16:16;7.93;;;7.23;;
16177;SDS011;8195;51.220;9.746;2023-04-20T03:26:39;6.30;;;5.70;;
16177;SDS011;8195;51.220;9.746;2023-04-20T03:37:00;6.20;;;5.37;;
16177;SDS011;8195;51.220;9.746;2023-04-20T03:47:23;5.80;;;5.20;;
16177;SDS011;8195;51.220;9.746;2023-04-20T03:57:44;6.13;;;5.53;;
16177;SDS011;8195;51.220;9.746;2023-04-20T04:08:05;6.30;;;5.70;;
16177;SDS011;8195;51.220;9.746;2023-04-20T04:18:25;5.63;;;5.13;;
16177;SDS011;8195;51.220;9.746;2023-04-20T04:28:46;5.40;;;4.90;;
16177;SDS011;8195;51.220;9.746;2023-04-20T04:39:08;4.80;;;4.20;;
16177;SDS011;8195;51.220;9.746;2023-04-20T04:49:29;4.93;;;4.43;;
16177;SDS011;8195;51.220;9.746;2023-04-20T04:59:49;4.53;;;4.10;;
16177;SDS011;8195;51.220;9.746;2023-04-20T05:10:10;4.90;;;4.50;;
16177;SDS011;8195;51.220;9.746;2023-04-20T05:20:31;5.77;;;5.17;;
16177;SDS011;8195;51.220;9.746;2023-04-20T05:30:52;9.87;;;7.70;;
16177;SDS011;8195;51.220;9.746;2023-04-20T05:41:13;8.47;;;7.57;;
16177;SDS011;8195;51.220;9.746;2023-04-20T05:51:34;8.53;;;7.63;;
16177;SDS011;8195;51.220;9.746;2023-04-20T06:01:55;9.00;;;8.10;;
16177;SDS011;8195;51.220;9.746;2023-04-20T06:12:16;9.83;;;8.63;;
16177;SDS011;8195;51.220;9.746;2023-04-20T06:22:40;10.83;;;9.47;;
16177;SDS011;8195;51.220;9.746;2023-04-20T06:33:02;9.73;;;8.07;;
16177;SDS011;8195;51.220;9.746;2023-04-20T06:43:23;7.90;;;7.10;;
16177;SDS011;8195;51.220;9.746;2023-04-20T06:53:44;7.77;;;6.97;;
16177;SDS011;8195;51.220;9.746;2023-04-20T07:04:05;9.07;;;8.17;;
16177;SDS011;8195;51.220;9.746;2023-04-20T07:14:26;9.87;;;8.77;;
16177;SDS011;8195;51.220;9.746;2023-04-20T07:24:47;10.87;;;9.77;;
16177;SDS011;8195;51.220;9.746;2023-04-20T07:35:08;12.90;;;11.13;;
16177;SDS011;8195;51.220;9.746;2023-04-20T07:45:29;13.73;;;12.23;;
16177;SDS011;8195;51.220;9.746;2023-04-20T07:55:59;15.17;;;13.20;;
16177;SDS011;8195;51.220;9.746;2023-04-20T08:06:20;15.70;;;13.23;;
16177;SDS011;8195;51.220;9.746;2023-04-20T08:16:41;16.23;;;13.63;;
16177;SDS011;8195;51.220;9.746;2023-04-20T08:27:02;18.03;;;14.67;;
16177;SDS011;8195;51.220;9.746;2023-04-20T08:37:23;20.00;;;15.10;;
16177;SDS011;8195;51.220;9.746;2023-04-20T08:47:44;20.37;;;15.70;;
16177;SDS011;8195;51.220;9.746;2023-04-20T08:58:06;21.00;;;15.30;;
16177;SDS011;8195;51.220;9.746;2023-04-20T09:08:33;18.53;;;15.43;;
16177;SDS011;8195;51.220;9.746;2023-04-20T09:18:59;19.33;;;14.67;;
16177;SDS011;8195;51.220;9.746;2023-04-20T09:29:20;16.43;;;14.10;;
16177;SDS011;8195;51.220;9.746;2023-04-20T09:39:43;16.97;;;13.77;;
16177;SDS011;8195;51.220;9.746;2023-04-20T09:50:05;16.33;;;14.40;;
16177;SDS011;8195;51.220;9.746;2023-04-20T10:00:26;15.40;;;13.67;;
16177;SDS011;8195;51.220;9.746;2023-04-20T10:10:48;16.07;;;14.00;;
16177;SDS011;8195;51.220;9.746;2023-04-20T10:21:09;18.07;;;14.13;;
16177;SDS011;8195;51.220;9.746;2023-04-20T10:31:37;15.43;;;13.77;;
16177;SDS011;8195;51.220;9.746;2023-04-20T10:41:59;16.73;;;14.33;;
16177;SDS011;8195;51.220;9.746;2023-04-20T10:52:39;13.50;;;12.13;;
16177;SDS011;8195;51.220;9.746;2023-04-20T11:03:02;14.43;;;13.03;;
16177;SDS011;8195;51.220;9.746;2023-04-20T11:13:26;14.23;;;12.83;;
16177;SDS011;8195;51.220;9.746;2023-04-20T11:23:52;12.70;;;11.50;;
16177;SDS011;8195;51.220;9.746;2023-04-20T11:34:22;12.97;;;11.63;;
16177;SDS011;8195;51.220;9.746;2023-04-20T11:44:43;14.23;;;12.83;;
16177;SDS011;8195;51.220;9.746;2023-04-20T11:55:04;12.00;;;10.87;;
16177;SDS011;8195;51.220;9.746;2023-04-20T12:05:29;12.00;;;10.90;;
16177;SDS011;8195;51.220;9.746;2023-04-20T12:15:50;12.37;;;11.27;;
16177;SDS011;8195;51.220;9.746;2023-04-20T12:26:14;11.37;;;10.47;;
16177;SDS011;8195;51.220;9.746;2023-04-20T12:36:35;11.93;;;10.93;;
16177;SDS011;8195;51.220;9.746;2023-04-20T12:46:56;11.23;;;10.33;;
16177;SDS011;8195;51.220;9.746;2023-04-20T12:57:20;11.30;;;10.30;;
16177;SDS011;8195;51.220;9.746;2023-04-20T13:07:41;10.33;;;9.50;;
16177;SDS011;8195;51.220;9.746;2023-04-20T13:18:02;12.47;;;11.37;;
16177;SDS011;8195;51.220;9.746;2023-04-20T13:28:28;13.23;;;12.13;;
16177;SDS011;8195;51.220;9.746;2023-04-20T13:38:49;12.33;;;11.33;;
16177;SDS011;8195;51.220;9.746;2023-04-20T13:49:10;13.97;;;12.77;;
16177;SDS011;8195;51.220;9.746;2023-04-20T14:10:46;14.03;;;12.83;;
16177;SDS011;8195;51.220;9.746;2023-04-20T14:21:07;14.37;;;13.17;;
16177;SDS011;8195;51.220;9.746;2023-04-20T14:31:28;14.77;;;13.47;;
16177;SDS011;8195;51.220;9.746;2023-04-20T14:41:50;14.27;;;13.07;;
16177;SDS011;8195;51.220;9.746;2023-04-20T14:52:12;13.30;;;12.20;;
16177;SDS011;8195;51.220;9.746;2023-04-20T15:02:33;13.37;;;11.97;;
16177;SDS011;8195;51.220;9.746;2023-04-20T15:12:54;13.30;;;12.10;;
16177;SDS011;8195;51.220;9.746;2023-04-20T15:23:15;13.93;;;12.63;;
16177;SDS011;8195;51.220;9.746;2023-04-20T15:33:35;13.73;;;12.43;;
16177;SDS011;8195;51.220;9.746;2023-04-20T15:43:56;13.90;;;12.63;;
16177;SDS011;8195;51.220;9.746;2023-04-20T15:54:17;15.17;;;13.77;;
16177;SDS011;8195;51.220;9.746;2023-04-20T16:04:38;16.47;;;14.97;;
16177;SDS011;8195;51.220;9.746;2023-04-20T16:15:00;17.13;;;15.43;;
16177;SDS011;8195;51.220;9.746;2023-04-20T16:25:22;16.83;;;15.23;;
16177;SDS011;8195;51.220;9.746;2023-04-20T16:35:43;17.97;;;16.10;;
16177;SDS011;8195;51.220;9.746;2023-04-20T16:57:09;17.53;;;15.83;;
16177;SDS011;8195;51.220;9.746;2023-04-20T17:07:30;18.20;;;16.40;;
16177;SDS011;8195;51.220;9.746;2023-04-20T17:17:51;21.07;;;18.87;;
16177;SDS011;8195;51.220;9.746;2023-04-20T17:28:12;22.50;;;19.97;;
16177;SDS011;8195;51.220;9.746;2023-04-20T17:38:33;22.07;;;19.73;;
16177;SDS011;8195;51.220;9.746;2023-04-20T17:48:54;22.30;;;19.93;;
16177;SDS011;8195;51.220;9.746;2023-04-20T17:59:15;22.87;;;20.37;;
16177;SDS011;8195;51.220;9.746;2023-04-20T18:09:36;24.07;;;20.73;;
16177;SDS011;8195;51.220;9.746;2023-04-20T18:19:57;23.77;;;21.20;;
16177;SDS011;8195;51.220;9.746;2023-04-20T18:30:18;27.83;;;22.93;;
16177;SDS011;8195;51.220;9.746;2023-04-20T18:41:12;27.60;;;23.03;;
16177;SDS011;8195;51.220;9.746;2023-04-20T18:51:26;31.50;;;25.43;;
16177;SDS011;8195;51.220;9.746;2023-04-20T19:01:47;32.93;;;27.30;;
16177;SDS011;8195;51.220;9.746;2023-04-20T19:12:08;33.83;;;27.03;;
16177;SDS011;8195;51.220;9.746;2023-04-20T19:22:29;35.30;;;26.97;;
16177;SDS011;8195;51.220;9.746;2023-04-20T19:32:50;36.07;;;28.00;;
16177;SDS011;8195;51.220;9.746;2023-04-20T19:43:11;34.57;;;27.43;;
16177;SDS011;8195;51.220;9.746;2023-04-20T19:53:32;35.50;;;28.23;;
16177;SDS011;8195;51.220;9.746;2023-04-20T20:03:53;39.70;;;29.77;;
16177;SDS011;8195;51.220;9.746;2023-04-20T20:14:17;38.13;;;28.60;;
16177;SDS011;8195;51.220;9.746;2023-04-20T20:24:38;36.30;;;29.10;;
16177;SDS011;8195;51.220;9.746;2023-04-20T20:34:59;37.57;;;30.40;;
16177;SDS011;8195;51.220;9.746;2023-04-20T20:45:20;36.50;;;29.63;;
16177;SDS011;8195;51.220;9.746;2023-04-20T20:55:41;40.57;;;30.93;;
16177;SDS011;8195;51.220;9.746;2023-04-20T21:06:02;37.70;;;32.73;;
16177;SDS011;8195;51.220;9.746;2023-04-20T21:16:26;37.90;;;32.13;;
16177;SDS011;8195;51.220;9.746;2023-04-20T21:26:47;38.33;;;32.87;;
16177;SDS011;8195;51.220;9.746;2023-04-20T21:37:08;37.63;;;32.37;;
16177;SDS011;8195;51.220;9.746;2023-04-20T21:47:29;39.53;;;33.53;;
16177;SDS011;8195;51.220;9.746;2023-04-20T21:57:50;41.63;;;32.93;;
16177;SDS011;8195;51.220;9.746;2023-04-20T22:08:11;38.27;;;32.70;;
16177;SDS011;8195;51.220;9.746;2023-04-20T22:18:31;36.30;;;31.57;;
16177;SDS011;8195;51.220;9.746;2023-04-20T22:28:52;36.70;;;30.97;;
16177;SDS011;8195;51.220;9.746;2023-04-20T22:39:16;39.97;;;32.03;;
16177;SDS011;8195;51.220;9.746;2023-04-20T22:49:37;36.17;;;29.97;;
16177;SDS011;8195;51.220;9.746;2023-04-20T22:59:58;36.93;;;32.03;;
16177;SDS011;8195;51.220;9.746;2023-04-20T23:10:21;34.40;;;30.63;;
16177;SDS011;8195;51.220;9.746;2023-04-20T23:20:42;38.33;;;31.50;;
16177;SDS011;8195;51.220;9.746;2023-04-20T23:31:03;35.10;;;31.30;;
16177;SDS011;8195;51.220;9.746;2023-04-20T23:41:24;37.17;;;33.03;;
16177;SDS011;8195;51.220;9.746;2023-04-20T23:51:45;37.63;;;33.17;;
